sensor_id;sensor_type;location;lat;lon;timestamp;temperature;humidity
3300;DHT22;1662;49.310;8.134;2023-08-01T00:01:30;18.60;99.90
3300;DHT22;1662;49.310;8.134;2023-08-01T00:03:56;18.60;99.90
3300;DHT22;1662;49.310;8.134;2023-08-01T00:06:21;18.50;99.90
3300;DHT22;1662;49.310;8.134;2023-08-01T00:08:48;18.50;99.90
3300;DHT22;1662;49.310;8.134;2023-08-01T00:11:13;18.50;99.90
3300;DHT22;1662;49.310;8.134;2023-08-01T00:13:42;18.50;99.90
3300;DHT22;1662;49.310;8.134;2023-08-01T00:16:11;18.50;99.90
3300;DHT22;1662;49.310;8.134;2023-08-01T00:18:36;18.50;99.90
3300;DHT22;1662;49.310;8.134;2023-08-01T00:21:03;18.40;99.90
3300;DHT22;1662;49.310;8.134;2023-08-01T00:23:31;18.40;99.90
3300;DHT22;1662;49.310;8.134;2023-08-01T00:25:56;18.50;99.90
3300;DHT22;1662;49.310;8.134;2023-08-01T00:28:22;18.40;99.90
3300;DHT22;1662;49.310;8.134;2023-08-01T00:30:48;18.40;99.90
3300;DHT22;1662;49.310;8.134;2023-08-01T00:33:13;18.40;99.90
3300;DHT22;1662;49.310;8.134;2023-08-01T00:35:40;18.40;99.90
3300;DHT22;1662;49.310;8.134;2023-08-01T00:38:06;18.40;99.90
3300;DHT22;1662;49.310;8.134;2023-08-01T00:40:32;18.30;99.90
3300;DHT22;1662;49.310;8.134;2023-08-01T00:42:58;18.30;99.90
3300;DHT22;1662;49.310;8.134;2023-08-01T00:45:27;18.40;99.90
3300;DHT22;1662;49.310;8.134;2023-08-01T00:47:54;18.40;99.90
3300;DHT22;1662;49.310;8.134;2023-08-01T00:50:20;18.40;99.90
3300;DHT22;1662;49.310;8.134;2023-08-01T00:52:47;18.40;99.90
3300;DHT22;1662;49.310;8.134;2023-08-01T00:55:14;18.50;99.90
3300;DHT22;1662;49.310;8.134;2023-08-01T00:57:41;18.40;99.90
3300;DHT22;1662;49.310;8.134;2023-08-01T01:00:07;18.40;99.90
3300;DHT22;1662;49.310;8.134;2023-08-01T01:02:36;18.40;99.90
3300;DHT22;1662;49.310;8.134;2023-08-01T01:05:03;18.40;99.90
3300;DHT22;1662;49.310;8.134;2023-08-01T01:07:29;18.40;99.90
3300;DHT22;1662;49.310;8.134;2023-08-01T01:09:56;18.40;99.90
3300;DHT22;1662;49.310;8.134;2023-08-01T01:12:21;18.30;99.90
3300;DHT22;1662;49.310;8.134;2023-08-01T01:14:47;18.30;99.90
3300;DHT22;1662;49.310;8.134;2023-08-01T01:17:14;18.40;99.90
3300;DHT22;1662;49.310;8.134;2023-08-01T01:19:39;18.50;99.90
3300;DHT22;1662;49.310;8.134;2023-08-01T01:22:07;18.40;99.90
3300;DHT22;1662;49.310;8.134;2023-08-01T01:24:34;18.40;99.90
3300;DHT22;1662;49.310;8.134;2023-08-01T01:27:19;18.30;99.90
3300;DHT22;1662;49.310;8.134;2023-08-01T01:29:49;18.30;99.90
3300;DHT22;1662;49.310;8.134;2023-08-01T01:32:15;18.30;99.90
3300;DHT22;1662;49.310;8.134;2023-08-01T01:34:41;18.30;99.90
3300;DHT22;1662;49.310;8.134;2023-08-01T01:37:07;18.40;99.90
3300;DHT22;1662;49.310;8.134;2023-08-01T01:39:32;18.40;99.90
3300;DHT22;1662;49.310;8.134;2023-08-01T01:41:58;18.40;99.90
3300;DHT22;1662;49.310;8.134;2023-08-01T01:44:23;18.40;99.90
3300;DHT22;1662;49.310;8.134;2023-08-01T01:46:49;18.40;99.90
3300;DHT22;1662;49.310;8.134;2023-08-01T01:49:15;18.40;99.90
3300;DHT22;1662;49.310;8.134;2023-08-01T01:51:40;18.40;99.90
3300;DHT22;1662;49.310;8.134;2023-08-01T01:54:08;18.40;99.90
3300;DHT22;1662;49.310;8.134;2023-08-01T01:56:34;18.40;99.90
3300;DHT22;1662;49.310;8.134;2023-08-01T01:59:01;18.40;99.90
3300;DHT22;1662;49.310;8.134;2023-08-01T02:01:27;18.40;99.90
3300;DHT22;1662;49.310;8.134;2023-08-01T02:03:52;18.40;99.90
3300;DHT22;1662;49.310;8.134;2023-08-01T02:06:18;18.40;99.90
3300;DHT22;1662;49.310;8.134;2023-08-01T02:08:43;18.40;99.90
3300;DHT22;1662;49.310;8.134;2023-08-01T02:11:09;18.40;99.90
3300;DHT22;1662;49.310;8.134;2023-08-01T02:13:35;18.40;99.90
3300;DHT22;1662;49.310;8.134;2023-08-01T02:16:00;18.50;99.90
3300;DHT22;1662;49.310;8.134;2023-08-01T02:18:26;18.50;99.90
3300;DHT22;1662;49.310;8.134;2023-08-01T02:20:54;18.50;99.90
3300;DHT22;1662;49.310;8.134;2023-08-01T02:23:19;18.50;99.90
3300;DHT22;1662;49.310;8.134;2023-08-01T02:25:45;18.50;99.90
3300;DHT22;1662;49.310;8.134;2023-08-01T02:28:11;18.50;99.90
3300;DHT22;1662;49.310;8.134;2023-08-01T02:30:38;18.50;99.90
3300;DHT22;1662;49.310;8.134;2023-08-01T02:33:03;18.50;99.90
3300;DHT22;1662;49.310;8.134;2023-08-01T02:35:32;18.50;99.90
3300;DHT22;1662;49.310;8.134;2023-08-01T02:37:58;18.50;99.90
3300;DHT22;1662;49.310;8.134;2023-08-01T02:40:24;18.40;99.90
3300;DHT22;1662;49.310;8.134;2023-08-01T02:42:50;18.40;99.90
3300;DHT22;1662;49.310;8.134;2023-08-01T02:45:15;18.40;99.90
3300;DHT22;1662;49.310;8.134;2023-08-01T02:47:41;18.40;99.90
3300;DHT22;1662;49.310;8.134;2023-08-01T02:50:07;18.40;99.90
3300;DHT22;1662;49.310;8.134;2023-08-01T02:52:33;18.40;99.90
3300;DHT22;1662;49.310;8.134;2023-08-01T02:54:58;18.50;99.90
3300;DHT22;1662;49.310;8.134;2023-08-01T02:57:24;18.40;99.90
3300;DHT22;1662;49.310;8.134;2023-08-01T02:59:52;18.40;99.90
3300;DHT22;1662;49.310;8.134;2023-08-01T03:02:19;18.40;99.90
3300;DHT22;1662;49.310;8.134;2023-08-01T03:04:44;18.40;99.90
3300;DHT22;1662;49.310;8.134;2023-08-01T03:07:10;18.40;99.90
3300;DHT22;1662;49.310;8.134;2023-08-01T03:09:35;18.50;99.90
3300;DHT22;1662;49.310;8.134;2023-08-01T03:12:01;18.40;99.90
3300;DHT22;1662;49.310;8.134;2023-08-01T03:14:27;18.40;99.90
3300;DHT22;1662;49.310;8.134;2023-08-01T03:16:53;18.40;99.90
3300;DHT22;1662;49.310;8.134;2023-08-01T03:19:18;18.40;99.90
3300;DHT22;1662;49.310;8.134;2023-08-01T03:21:44;18.40;99.90
3300;DHT22;1662;49.310;8.134;2023-08-01T03:24:09;18.40;99.90
3300;DHT22;1662;49.310;8.134;2023-08-01T03:26:36;18.40;99.90
3300;DHT22;1662;49.310;8.134;2023-08-01T03:29:01;18.50;99.90
3300;DHT22;1662;49.310;8.134;2023-08-01T03:31:27;18.40;99.90
3300;DHT22;1662;49.310;8.134;2023-08-01T03:33:53;18.50;99.90
3300;DHT22;1662;49.310;8.134;2023-08-01T03:36:19;18.40;99.90
3300;DHT22;1662;49.310;8.134;2023-08-01T03:38:45;18.40;99.90
3300;DHT22;1662;49.310;8.134;2023-08-01T03:41:12;18.40;99.90
3300;DHT22;1662;49.310;8.134;2023-08-01T03:43:39;18.40;99.90
3300;DHT22;1662;49.310;8.134;2023-08-01T03:46:04;18.40;99.90
3300;DHT22;1662;49.310;8.134;2023-08-01T03:48:30;18.40;99.90
3300;DHT22;1662;49.310;8.134;2023-08-01T03:50:56;18.40;99.90
3300;DHT22;1662;49.310;8.134;2023-08-01T03:53:21;18.40;99.90
3300;DHT22;1662;49.310;8.134;2023-08-01T03:55:47;18.40;99.90
3300;DHT22;1662;49.310;8.134;2023-08-01T03:58:16;18.40;99.90
3300;DHT22;1662;49.310;8.134;2023-08-01T04:00:42;18.40;99.90
3300;DHT22;1662;49.310;8.134;2023-08-01T04:03:08;18.40;99.90
3300;DHT22;1662;49.310;8.134;2023-08-01T04:05:33;18.40;99.90
3300;DHT22;1662;49.310;8.134;2023-08-01T04:07:59;18.40;99.90
3300;DHT22;1662;49.310;8.134;2023-08-01T04:10:25;18.40;99.90
3300;DHT22;1662;49.310;8.134;2023-08-01T04:12:50;18.40;99.90
3300;DHT22;1662;49.310;8.134;2023-08-01T04:15:16;18.40;99.90
3300;DHT22;1662;49.310;8.134;2023-08-01T04:17:44;18.30;99.90
3300;DHT22;1662;49.310;8.134;2023-08-01T04:20:10;18.30;99.90
3300;DHT22;1662;49.310;8.134;2023-08-01T04:22:36;18.30;99.90
3300;DHT22;1662;49.310;8.134;2023-08-01T04:25:02;18.30;99.90
3300;DHT22;1662;49.310;8.134;2023-08-01T04:27:27;18.20;99.90
3300;DHT22;1662;49.310;8.134;2023-08-01T04:29:54;18.30;99.90
3300;DHT22;1662;49.310;8.134;2023-08-01T04:32:20;18.20;99.90
3300;DHT22;1662;49.310;8.134;2023-08-01T04:34:46;18.10;99.90
3300;DHT22;1662;49.310;8.134;2023-08-01T04:37:11;18.10;99.90
3300;DHT22;1662;49.310;8.134;2023-08-01T04:39:37;18.20;99.90
3300;DHT22;1662;49.310;8.134;2023-08-01T04:42:03;18.10;99.90
3300;DHT22;1662;49.310;8.134;2023-08-01T04:44:29;18.10;99.90
3300;DHT22;1662;49.310;8.134;2023-08-01T04:46:55;18.00;99.90
3300;DHT22;1662;49.310;8.134;2023-08-01T04:49:21;18.00;99.90
3300;DHT22;1662;49.310;8.134;2023-08-01T04:51:49;18.10;99.90
3300;DHT22;1662;49.310;8.134;2023-08-01T04:54:15;17.60;99.90
3300;DHT22;1662;49.310;8.134;2023-08-01T04:56:40;18.00;99.90
3300;DHT22;1662;49.310;8.134;2023-08-01T04:59:06;17.90;99.90
3300;DHT22;1662;49.310;8.134;2023-08-01T05:01:32;17.90;99.90
3300;DHT22;1662;49.310;8.134;2023-08-01T05:03:57;17.80;99.90
3300;DHT22;1662;49.310;8.134;2023-08-01T05:06:23;17.90;99.90
3300;DHT22;1662;49.310;8.134;2023-08-01T05:08:49;17.80;99.90
3300;DHT22;1662;49.310;8.134;2023-08-01T05:11:14;17.70;99.90
3300;DHT22;1662;49.310;8.134;2023-08-01T05:13:40;17.70;99.90
3300;DHT22;1662;49.310;8.134;2023-08-01T05:16:05;17.80;99.90
3300;DHT22;1662;49.310;8.134;2023-08-01T05:18:31;17.80;99.90
3300;DHT22;1662;49.310;8.134;2023-08-01T05:20:57;17.50;99.90
3300;DHT22;1662;49.310;8.134;2023-08-01T05:23:22;17.40;99.90
3300;DHT22;1662;49.310;8.134;2023-08-01T05:25:48;17.40;99.90
3300;DHT22;1662;49.310;8.134;2023-08-01T05:28:13;17.40;99.90
3300;DHT22;1662;49.310;8.134;2023-08-01T05:30:40;17.30;99.90
3300;DHT22;1662;49.310;8.134;2023-08-01T05:33:08;17.40;99.90
3300;DHT22;1662;49.310;8.134;2023-08-01T05:35:34;17.30;99.90
3300;DHT22;1662;49.310;8.134;2023-08-01T05:37:59;17.30;99.90
3300;DHT22;1662;49.310;8.134;2023-08-01T05:40:25;17.30;99.90
3300;DHT22;1662;49.310;8.134;2023-08-01T05:42:51;17.30;99.90
3300;DHT22;1662;49.310;8.134;2023-08-01T05:45:17;17.30;99.90
3300;DHT22;1662;49.310;8.134;2023-08-01T05:47:43;17.30;99.90
3300;DHT22;1662;49.310;8.134;2023-08-01T05:50:09;17.30;99.90
3300;DHT22;1662;49.310;8.134;2023-08-01T05:52:34;17.30;99.90
3300;DHT22;1662;49.310;8.134;2023-08-01T05:55:00;17.30;99.90
3300;DHT22;1662;49.310;8.134;2023-08-01T05:57:26;17.30;99.90
3300;DHT22;1662;49.310;8.134;2023-08-01T05:59:51;17.30;99.90
3300;DHT22;1662;49.310;8.134;2023-08-01T06:02:17;17.40;99.90
3300;DHT22;1662;49.310;8.134;2023-08-01T06:04:43;17.40;99.90
3300;DHT22;1662;49.310;8.134;2023-08-01T06:07:08;17.40;99.90
3300;DHT22;1662;49.310;8.134;2023-08-01T06:09:38;17.40;99.90
3300;DHT22;1662;49.310;8.134;2023-08-01T06:12:04;17.40;99.90
3300;DHT22;1662;49.310;8.134;2023-08-01T06:14:30;17.40;99.90
3300;DHT22;1662;49.310;8.134;2023-08-01T06:16:56;17.40;99.90
3300;DHT22;1662;49.310;8.134;2023-08-01T06:19:21;17.40;99.90
3300;DHT22;1662;49.310;8.134;2023-08-01T06:21:47;17.40;99.90
3300;DHT22;1662;49.310;8.134;2023-08-01T06:24:13;17.40;99.90
3300;DHT22;1662;49.310;8.134;2023-08-01T06:26:38;17.40;99.90
3300;DHT22;1662;49.310;8.134;2023-08-01T06:29:06;17.40;99.90
3300;DHT22;1662;49.310;8.134;2023-08-01T06:31:32;17.40;99.90
3300;DHT22;1662;49.310;8.134;2023-08-01T06:33:57;17.40;99.90
3300;DHT22;1662;49.310;8.134;2023-08-01T06:36:23;17.40;99.90
3300;DHT22;1662;49.310;8.134;2023-08-01T06:38:48;17.40;99.90
3300;DHT22;1662;49.310;8.134;2023-08-01T06:41:14;17.50;99.90
3300;DHT22;1662;49.310;8.134;2023-08-01T06:43:40;17.50;99.90
3300;DHT22;1662;49.310;8.134;2023-08-01T06:46:05;17.50;99.90
3300;DHT22;1662;49.310;8.134;2023-08-01T06:48:31;17.40;99.90
3300;DHT22;1662;49.310;8.134;2023-08-01T06:51:00;17.50;99.90
3300;DHT22;1662;49.310;8.134;2023-08-01T06:53:26;17.50;99.90
3300;DHT22;1662;49.310;8.134;2023-08-01T06:55:52;17.50;99.90
3300;DHT22;1662;49.310;8.134;2023-08-01T06:58:18;17.50;99.90
3300;DHT22;1662;49.310;8.134;2023-08-01T07:00:44;17.50;99.90
3300;DHT22;1662;49.310;8.134;2023-08-01T07:03:09;17.60;99.90
3300;DHT22;1662;49.310;8.134;2023-08-01T07:05:35;17.60;99.90
3300;DHT22;1662;49.310;8.134;2023-08-01T07:08:00;17.60;99.90
3300;DHT22;1662;49.310;8.134;2023-08-01T07:10:30;17.70;99.90
3300;DHT22;1662;49.310;8.134;2023-08-01T07:12:55;17.80;99.90
3300;DHT22;1662;49.310;8.134;2023-08-01T07:15:21;17.80;99.90
3300;DHT22;1662;49.310;8.134;2023-08-01T07:17:47;17.80;99.90
3300;DHT22;1662;49.310;8.134;2023-08-01T07:20:15;17.90;99.90
3300;DHT22;1662;49.310;8.134;2023-08-01T07:22:40;17.90;99.90
3300;DHT22;1662;49.310;8.134;2023-08-01T07:25:06;17.90;99.90
3300;DHT22;1662;49.310;8.134;2023-08-01T07:27:34;17.90;99.90
3300;DHT22;1662;49.310;8.134;2023-08-01T07:29:59;17.90;99.90
3300;DHT22;1662;49.310;8.134;2023-08-01T07:32:25;18.00;99.90
3300;DHT22;1662;49.310;8.134;2023-08-01T07:34:51;18.00;99.90
3300;DHT22;1662;49.310;8.134;2023-08-01T07:37:16;18.00;99.90
3300;DHT22;1662;49.310;8.134;2023-08-01T07:39:42;18.00;99.90
3300;DHT22;1662;49.310;8.134;2023-08-01T07:42:07;18.00;99.90
3300;DHT22;1662;49.310;8.134;2023-08-01T07:44:33;18.10;99.90
3300;DHT22;1662;49.310;8.134;2023-08-01T07:46:58;18.10;99.90
3300;DHT22;1662;49.310;8.134;2023-08-01T07:49:24;18.10;99.90
3300;DHT22;1662;49.310;8.134;2023-08-01T07:51:50;18.10;99.90
3300;DHT22;1662;49.310;8.134;2023-08-01T07:54:16;18.20;99.90
3300;DHT22;1662;49.310;8.134;2023-08-01T07:56:42;18.10;99.90
3300;DHT22;1662;49.310;8.134;2023-08-01T07:59:09;18.20;99.90
3300;DHT22;1662;49.310;8.134;2023-08-01T08:01:35;18.20;99.90
3300;DHT22;1662;49.310;8.134;2023-08-01T08:04:01;18.30;99.90
3300;DHT22;1662;49.310;8.134;2023-08-01T08:06:26;18.40;99.90
3300;DHT22;1662;49.310;8.134;2023-08-01T08:08:52;18.50;99.90
3300;DHT22;1662;49.310;8.134;2023-08-01T08:11:17;18.60;99.90
3300;DHT22;1662;49.310;8.134;2023-08-01T08:13:43;18.60;99.90
3300;DHT22;1662;49.310;8.134;2023-08-01T08:16:09;18.70;99.90
3300;DHT22;1662;49.310;8.134;2023-08-01T08:18:34;18.70;99.90
3300;DHT22;1662;49.310;8.134;2023-08-01T08:21:00;18.80;99.90
3300;DHT22;1662;49.310;8.134;2023-08-01T08:23:25;18.80;99.90
3300;DHT22;1662;49.310;8.134;2023-08-01T08:25:51;18.90;99.90
3300;DHT22;1662;49.310;8.134;2023-08-01T08:28:30;19.00;99.90
3300;DHT22;1662;49.310;8.134;2023-08-01T08:30:56;19.00;99.90
3300;DHT22;1662;49.310;8.134;2023-08-01T08:33:22;19.00;99.90
3300;DHT22;1662;49.310;8.134;2023-08-01T08:35:48;19.00;99.90
3300;DHT22;1662;49.310;8.134;2023-08-01T08:38:14;19.00;99.90
3300;DHT22;1662;49.310;8.134;2023-08-01T08:41:09;19.10;99.90
3300;DHT22;1662;49.310;8.134;2023-08-01T08:43:33;19.10;99.90
3300;DHT22;1662;49.310;8.134;2023-08-01T08:46:01;19.20;99.90
3300;DHT22;1662;49.310;8.134;2023-08-01T08:48:28;19.30;99.90
3300;DHT22;1662;49.310;8.134;2023-08-01T08:50:57;19.40;99.90
3300;DHT22;1662;49.310;8.134;2023-08-01T08:53:23;19.50;99.90
3300;DHT22;1662;49.310;8.134;2023-08-01T08:55:49;19.60;99.90
3300;DHT22;1662;49.310;8.134;2023-08-01T08:58:16;19.50;99.90
3300;DHT22;1662;49.310;8.134;2023-08-01T09:00:42;19.50;99.90
3300;DHT22;1662;49.310;8.134;2023-08-01T09:03:08;19.50;99.90
3300;DHT22;1662;49.310;8.134;2023-08-01T09:05:59;19.50;99.90
3300;DHT22;1662;49.310;8.134;2023-08-01T09:08:28;19.60;99.90
3300;DHT22;1662;49.310;8.134;2023-08-01T09:10:55;19.70;99.90
3300;DHT22;1662;49.310;8.134;2023-08-01T09:13:20;19.80;99.90
3300;DHT22;1662;49.310;8.134;2023-08-01T09:15:46;19.90;99.90
3300;DHT22;1662;49.310;8.134;2023-08-01T09:18:13;20.00;99.90
3300;DHT22;1662;49.310;8.134;2023-08-01T09:20:46;20.00;99.90
3300;DHT22;1662;49.310;8.134;2023-08-01T09:23:12;20.10;99.90
3300;DHT22;1662;49.310;8.134;2023-08-01T09:25:39;20.20;99.90
3300;DHT22;1662;49.310;8.134;2023-08-01T09:28:21;20.30;99.90
3300;DHT22;1662;49.310;8.134;2023-08-01T09:30:48;20.40;99.90
3300;DHT22;1662;49.310;8.134;2023-08-01T09:33:16;20.50;99.90
3300;DHT22;1662;49.310;8.134;2023-08-01T09:35:42;20.60;99.90
3300;DHT22;1662;49.310;8.134;2023-08-01T09:38:10;20.60;99.90
3300;DHT22;1662;49.310;8.134;2023-08-01T09:40:39;20.60;99.90
3300;DHT22;1662;49.310;8.134;2023-08-01T09:43:05;20.60;99.90
3300;DHT22;1662;49.310;8.134;2023-08-01T09:45:31;20.70;99.90
3300;DHT22;1662;49.310;8.134;2023-08-01T09:47:56;20.60;99.90
3300;DHT22;1662;49.310;8.134;2023-08-01T09:50:23;20.60;99.90
3300;DHT22;1662;49.310;8.134;2023-08-01T09:52:49;20.70;99.90
3300;DHT22;1662;49.310;8.134;2023-08-01T09:55:36;20.80;99.90
3300;DHT22;1662;49.310;8.134;2023-08-01T09:58:05;21.00;99.90
3300;DHT22;1662;49.310;8.134;2023-08-01T10:00:32;21.10;99.90
3300;DHT22;1662;49.310;8.134;2023-08-01T10:02:59;21.20;99.90
3300;DHT22;1662;49.310;8.134;2023-08-01T10:05:32;21.20;99.90
3300;DHT22;1662;49.310;8.134;2023-08-01T10:08:02;21.30;99.90
3300;DHT22;1662;49.310;8.134;2023-08-01T10:10:29;21.50;99.90
3300;DHT22;1662;49.310;8.134;2023-08-01T10:12:56;21.60;99.90
3300;DHT22;1662;49.310;8.134;2023-08-01T10:15:24;21.70;99.90
3300;DHT22;1662;49.310;8.134;2023-08-01T10:17:51;21.80;99.90
3300;DHT22;1662;49.310;8.134;2023-08-01T10:20:18;21.90;99.90
3300;DHT22;1662;49.310;8.134;2023-08-01T10:22:44;22.00;99.90
3300;DHT22;1662;49.310;8.134;2023-08-01T10:25:10;22.10;99.90
3300;DHT22;1662;49.310;8.134;2023-08-01T10:27:36;22.20;99.90
3300;DHT22;1662;49.310;8.134;2023-08-01T10:30:04;22.20;99.90
3300;DHT22;1662;49.310;8.134;2023-08-01T10:32:37;22.10;99.90
3300;DHT22;1662;49.310;8.134;2023-08-01T10:35:03;21.90;99.90
3300;DHT22;1662;49.310;8.134;2023-08-01T10:37:45;21.80;99.90
3300;DHT22;1662;49.310;8.134;2023-08-01T10:40:14;21.90;99.90
3300;DHT22;1662;49.310;8.134;2023-08-01T10:42:41;22.00;99.90
3300;DHT22;1662;49.310;8.134;2023-08-01T10:45:19;22.10;99.90
3300;DHT22;1662;49.310;8.134;2023-08-01T10:47:45;22.20;99.90
3300;DHT22;1662;49.310;8.134;2023-08-01T10:50:18;22.10;99.90
3300;DHT22;1662;49.310;8.134;2023-08-01T10:52:44;22.20;99.90
3300;DHT22;1662;49.310;8.134;2023-08-01T10:55:10;22.20;99.90
3300;DHT22;1662;49.310;8.134;2023-08-01T10:57:39;22.30;99.90
3300;DHT22;1662;49.310;8.134;2023-08-01T11:00:05;22.30;99.90
3300;DHT22;1662;49.310;8.134;2023-08-01T11:02:37;22.30;99.90
3300;DHT22;1662;49.310;8.134;2023-08-01T11:05:06;22.50;99.90
3300;DHT22;1662;49.310;8.134;2023-08-01T11:07:34;22.70;99.90
3300;DHT22;1662;49.310;8.134;2023-08-01T11:10:10;22.80;99.90
3300;DHT22;1662;49.310;8.134;2023-08-01T11:12:41;22.80;99.90
3300;DHT22;1662;49.310;8.134;2023-08-01T11:15:08;22.80;99.90
3300;DHT22;1662;49.310;8.134;2023-08-01T11:17:43;22.70;99.90
3300;DHT22;1662;49.310;8.134;2023-08-01T11:20:12;22.60;99.90
3300;DHT22;1662;49.310;8.134;2023-08-01T11:22:48;22.60;99.90
3300;DHT22;1662;49.310;8.134;2023-08-01T11:25:14;22.70;99.90
3300;DHT22;1662;49.310;8.134;2023-08-01T11:27:41;22.90;99.90
3300;DHT22;1662;49.310;8.134;2023-08-01T11:30:07;23.10;99.90
3300;DHT22;1662;49.310;8.134;2023-08-01T11:32:38;23.30;99.90
3300;DHT22;1662;49.310;8.134;2023-08-01T11:35:04;23.40;99.90
3300;DHT22;1662;49.310;8.134;2023-08-01T11:37:30;23.40;99.90
3300;DHT22;1662;49.310;8.134;2023-08-01T11:39:57;23.70;99.90
3300;DHT22;1662;49.310;8.134;2023-08-01T11:42:24;23.80;99.90
3300;DHT22;1662;49.310;8.134;2023-08-01T11:44:49;23.70;99.90
3300;DHT22;1662;49.310;8.134;2023-08-01T11:47:16;23.60;99.90
3300;DHT22;1662;49.310;8.134;2023-08-01T11:49:49;23.30;99.90
3300;DHT22;1662;49.310;8.134;2023-08-01T11:52:25;23.10;99.90
3300;DHT22;1662;49.310;8.134;2023-08-01T11:54:51;23.10;99.90
3300;DHT22;1662;49.310;8.134;2023-08-01T11:57:17;23.10;99.90
3300;DHT22;1662;49.310;8.134;2023-08-01T11:59:49;23.30;99.90
3300;DHT22;1662;49.310;8.134;2023-08-01T12:02:28;23.40;99.90
3300;DHT22;1662;49.310;8.134;2023-08-01T12:04:55;23.70;99.90
3300;DHT22;1662;49.310;8.134;2023-08-01T12:07:21;23.90;99.90
3300;DHT22;1662;49.310;8.134;2023-08-01T12:09:59;23.80;99.90
3300;DHT22;1662;49.310;8.134;2023-08-01T12:12:29;23.50;99.90
3300;DHT22;1662;49.310;8.134;2023-08-01T12:14:54;23.20;99.90
3300;DHT22;1662;49.310;8.134;2023-08-01T12:17:21;23.00;99.90
3300;DHT22;1662;49.310;8.134;2023-08-01T12:19:47;22.90;99.90
3300;DHT22;1662;49.310;8.134;2023-08-01T12:22:13;22.90;99.90
3300;DHT22;1662;49.310;8.134;2023-08-01T12:24:40;23.20;99.90
3300;DHT22;1662;49.310;8.134;2023-08-01T12:27:09;23.40;99.90
3300;DHT22;1662;49.310;8.134;2023-08-01T12:29:35;23.60;99.90
3300;DHT22;1662;49.310;8.134;2023-08-01T12:32:02;23.80;99.90
3300;DHT22;1662;49.310;8.134;2023-08-01T12:34:28;23.80;99.90
3300;DHT22;1662;49.310;8.134;2023-08-01T12:36:53;23.70;99.90
3300;DHT22;1662;49.310;8.134;2023-08-01T12:39:19;23.60;99.90
3300;DHT22;1662;49.310;8.134;2023-08-01T12:41:45;23.60;99.90
3300;DHT22;1662;49.310;8.134;2023-08-01T12:44:13;23.60;99.90
3300;DHT22;1662;49.310;8.134;2023-08-01T12:46:41;23.80;99.90
3300;DHT22;1662;49.310;8.134;2023-08-01T12:49:07;23.90;99.90
3300;DHT22;1662;49.310;8.134;2023-08-01T12:51:32;23.90;99.90
3300;DHT22;1662;49.310;8.134;2023-08-01T12:53:58;24.10;99.90
3300;DHT22;1662;49.310;8.134;2023-08-01T12:56:23;24.30;99.90
3300;DHT22;1662;49.310;8.134;2023-08-01T12:58:49;24.60;99.90
3300;DHT22;1662;49.310;8.134;2023-08-01T13:01:14;24.70;99.90
3300;DHT22;1662;49.310;8.134;2023-08-01T13:03:40;24.80;99.90
3300;DHT22;1662;49.310;8.134;2023-08-01T13:06:06;24.80;99.90
3300;DHT22;1662;49.310;8.134;2023-08-01T13:08:31;24.60;99.90
3300;DHT22;1662;49.310;8.134;2023-08-01T13:10:59;24.40;99.90
3300;DHT22;1662;49.310;8.134;2023-08-01T13:13:25;24.30;99.90
3300;DHT22;1662;49.310;8.134;2023-08-01T13:15:51;24.40;99.90
3300;DHT22;1662;49.310;8.134;2023-08-01T13:18:16;24.60;99.90
3300;DHT22;1662;49.310;8.134;2023-08-01T13:20:43;24.90;99.90
3300;DHT22;1662;49.310;8.134;2023-08-01T13:23:08;25.10;99.90
3300;DHT22;1662;49.310;8.134;2023-08-01T13:25:34;25.00;99.90
3300;DHT22;1662;49.310;8.134;2023-08-01T13:28:01;24.90;99.90
3300;DHT22;1662;49.310;8.134;2023-08-01T13:30:26;24.70;99.90
3300;DHT22;1662;49.310;8.134;2023-08-01T13:32:52;24.60;99.90
3300;DHT22;1662;49.310;8.134;2023-08-01T13:35:17;24.50;99.90
3300;DHT22;1662;49.310;8.134;2023-08-01T13:37:43;24.40;99.90
3300;DHT22;1662;49.310;8.134;2023-08-01T13:40:11;24.30;99.90
3300;DHT22;1662;49.310;8.134;2023-08-01T13:42:39;24.40;99.90
3300;DHT22;1662;49.310;8.134;2023-08-01T13:45:05;24.30;99.90
3300;DHT22;1662;49.310;8.134;2023-08-01T13:47:31;24.40;99.90
3300;DHT22;1662;49.310;8.134;2023-08-01T13:49:56;24.30;99.90
3300;DHT22;1662;49.310;8.134;2023-08-01T13:52:22;24.20;99.90
3300;DHT22;1662;49.310;8.134;2023-08-01T13:54:48;24.10;99.90
3300;DHT22;1662;49.310;8.134;2023-08-01T13:57:13;24.20;99.90
3300;DHT22;1662;49.310;8.134;2023-08-01T13:59:39;24.40;99.90
3300;DHT22;1662;49.310;8.134;2023-08-01T14:02:05;24.70;99.90
3300;DHT22;1662;49.310;8.134;2023-08-01T14:04:33;25.00;99.90
3300;DHT22;1662;49.310;8.134;2023-08-01T14:06:59;25.10;99.90
3300;DHT22;1662;49.310;8.134;2023-08-01T14:09:24;24.90;99.90
3300;DHT22;1662;49.310;8.134;2023-08-01T14:11:50;24.80;99.90
3300;DHT22;1662;49.310;8.134;2023-08-01T14:14:15;24.90;99.90
3300;DHT22;1662;49.310;8.134;2023-08-01T14:16:41;25.10;99.90
3300;DHT22;1662;49.310;8.134;2023-08-01T14:19:07;25.20;99.90
3300;DHT22;1662;49.310;8.134;2023-08-01T14:21:34;25.50;99.90
3300;DHT22;1662;49.310;8.134;2023-08-01T14:24:00;25.60;99.90
3300;DHT22;1662;49.310;8.134;2023-08-01T14:26:26;25.80;99.90
3300;DHT22;1662;49.310;8.134;2023-08-01T14:28:51;25.90;99.90
3300;DHT22;1662;49.310;8.134;2023-08-01T14:31:17;25.80;99.90
3300;DHT22;1662;49.310;8.134;2023-08-01T14:33:42;25.60;99.90
3300;DHT22;1662;49.310;8.134;2023-08-01T14:36:12;25.40;99.90
3300;DHT22;1662;49.310;8.134;2023-08-01T14:38:38;25.50;99.90
3300;DHT22;1662;49.310;8.134;2023-08-01T14:41:04;25.60;99.90
3300;DHT22;1662;49.310;8.134;2023-08-01T14:43:30;25.50;99.90
3300;DHT22;1662;49.310;8.134;2023-08-01T14:45:58;25.50;99.90
3300;DHT22;1662;49.310;8.134;2023-08-01T14:48:25;25.60;99.90
3300;DHT22;1662;49.310;8.134;2023-08-01T14:50:50;25.70;99.90
3300;DHT22;1662;49.310;8.134;2023-08-01T14:53:16;25.60;99.90
3300;DHT22;1662;49.310;8.134;2023-08-01T14:55:41;25.60;99.90
3300;DHT22;1662;49.310;8.134;2023-08-01T14:58:07;25.80;99.90
3300;DHT22;1662;49.310;8.134;2023-08-01T15:00:36;26.00;99.90
3300;DHT22;1662;49.310;8.134;2023-08-01T15:03:01;26.10;99.90
3300;DHT22;1662;49.310;8.134;2023-08-01T15:05:27;26.20;99.90
3300;DHT22;1662;49.310;8.134;2023-08-01T15:07:53;26.30;99.90
3300;DHT22;1662;49.310;8.134;2023-08-01T15:10:18;26.20;99.90
3300;DHT22;1662;49.310;8.134;2023-08-01T15:12:44;26.20;99.90
3300;DHT22;1662;49.310;8.134;2023-08-01T15:15:10;26.20;99.90
3300;DHT22;1662;49.310;8.134;2023-08-01T15:17:35;26.30;99.90
3300;DHT22;1662;49.310;8.134;2023-08-01T15:20:01;26.40;99.90
3300;DHT22;1662;49.310;8.134;2023-08-01T15:22:28;26.40;99.90
3300;DHT22;1662;49.310;8.134;2023-08-01T15:24:54;26.40;99.90
3300;DHT22;1662;49.310;8.134;2023-08-01T15:27:21;26.40;99.90
3300;DHT22;1662;49.310;8.134;2023-08-01T15:29:47;26.30;99.90
3300;DHT22;1662;49.310;8.134;2023-08-01T15:32:13;26.50;99.90
3300;DHT22;1662;49.310;8.134;2023-08-01T15:34:38;26.50;99.90
3300;DHT22;1662;49.310;8.134;2023-08-01T15:37:07;26.50;99.90
3300;DHT22;1662;49.310;8.134;2023-08-01T15:39:34;26.20;99.90
3300;DHT22;1662;49.310;8.134;2023-08-01T15:41:59;25.70;99.90
3300;DHT22;1662;49.310;8.134;2023-08-01T15:44:25;25.50;99.90
3300;DHT22;1662;49.310;8.134;2023-08-01T15:46:50;25.60;99.90
3300;DHT22;1662;49.310;8.134;2023-08-01T15:49:19;25.80;99.90
3300;DHT22;1662;49.310;8.134;2023-08-01T15:51:45;25.50;99.90
3300;DHT22;1662;49.310;8.134;2023-08-01T15:54:12;25.20;99.90
3300;DHT22;1662;49.310;8.134;2023-08-01T15:56:38;25.00;99.90
3300;DHT22;1662;49.310;8.134;2023-08-01T15:59:07;24.80;99.90